sensor_id;sensor_type;location;lat;lon;timestamp;P1;durP1;ratioP1;P2;durP2;ratioP2
3683;SDS011;1858;48.716;9.648;2024-03-23T00:53:12;7.07;;;4.13;;
3683;SDS011;1858;48.716;9.648;2024-03-23T00:55:42;6.67;;;4.50;;
3683;SDS011;1858;48.716;9.648;2024-03-23T01:00:58;5.83;;;4.07;;
3683;SDS011;1858;48.716;9.648;2024-03-23T01:03:26;7.00;;;4.23;;
3683;SDS011;1858;48.716;9.648;2024-03-23T01:05:58;5.83;;;4.50;;
3683;SDS011;1858;48.716;9.648;2024-03-23T01:08:27;8.60;;;5.10;;
3683;SDS011;1858;48.716;9.648;2024-03-23T01:10:56;11.03;;;5.23;;
3683;SDS011;1858;48.716;9.648;2024-03-23T01:13:48;6.57;;;4.13;;
3683;SDS011;1858;48.716;9.648;2024-03-23T01:19:04;4.87;;;3.67;;
3683;SDS011;1858;48.716;9.648;2024-03-23T01:24:21;6.93;;;4.77;;
3683;SDS011;1858;48.716;9.648;2024-03-23T01:26:49;5.97;;;4.40;;
3683;SDS011;1858;48.716;9.648;2024-03-23T01:29:17;4.37;;;3.47;;
3683;SDS011;1858;48.716;9.648;2024-03-23T01:31:46;6.40;;;4.80;;
3683;SDS011;1858;48.716;9.648;2024-03-23T01:34:14;7.07;;;5.70;;
3683;SDS011;1858;48.716;9.648;2024-03-23T01:36:42;6.60;;;4.83;;
3683;SDS011;1858;48.716;9.648;2024-03-23T01:39:13;5.93;;;4.47;;
3683;SDS011;1858;48.716;9.648;2024-03-23T01:41:41;6.85;;;4.40;;
3683;SDS011;1858;48.716;9.648;2024-03-23T01:44:09;8.90;;;4.63;;
3683;SDS011;1858;48.716;9.648;2024-03-23T01:46:38;6.73;;;4.80;;
3683;SDS011;1858;48.716;9.648;2024-03-23T01:49:08;8.37;;;4.93;;
3683;SDS011;1858;48.716;9.648;2024-03-23T01:51:37;6.20;;;4.50;;
3683;SDS011;1858;48.716;9.648;2024-03-23T01:54:06;8.50;;;6.30;;
3683;SDS011;1858;48.716;9.648;2024-03-23T01:56:35;5.60;;;4.53;;
3683;SDS011;1858;48.716;9.648;2024-03-23T01:59:04;6.20;;;5.03;;
3683;SDS011;1858;48.716;9.648;2024-03-23T02:01:34;7.30;;;4.70;;
3683;SDS011;1858;48.716;9.648;2024-03-23T02:04:03;8.13;;;4.87;;
3683;SDS011;1858;48.716;9.648;2024-03-23T02:06:31;6.50;;;4.97;;
3683;SDS011;1858;48.716;9.648;2024-03-23T02:09:00;9.50;;;4.05;;
3683;SDS011;1858;48.716;9.648;2024-03-23T02:11:28;10.60;;;5.25;;
3683;SDS011;1858;48.716;9.648;2024-03-23T02:13:57;8.43;;;5.50;;
3683;SDS011;1858;48.716;9.648;2024-03-23T02:16:25;6.23;;;5.27;;
3683;SDS011;1858;48.716;9.648;2024-03-23T02:18:54;11.07;;;5.20;;
3683;SDS011;1858;48.716;9.648;2024-03-23T02:21:22;7.55;;;5.80;;
3683;SDS011;1858;48.716;9.648;2024-03-23T02:23:50;11.30;;;5.60;;
3683;SDS011;1858;48.716;9.648;2024-03-23T02:26:19;8.40;;;5.17;;
3683;SDS011;1858;48.716;9.648;2024-03-23T02:28:47;8.00;;;5.87;;
3683;SDS011;1858;48.716;9.648;2024-03-23T02:31:16;6.37;;;4.80;;
3683;SDS011;1858;48.716;9.648;2024-03-23T02:33:44;7.50;;;5.05;;
3683;SDS011;1858;48.716;9.648;2024-03-23T02:36:12;7.63;;;5.60;;
3683;SDS011;1858;48.716;9.648;2024-03-23T02:38:41;7.33;;;5.07;;
3683;SDS011;1858;48.716;9.648;2024-03-23T02:41:09;7.07;;;5.73;;
3683;SDS011;1858;48.716;9.648;2024-03-23T02:43:37;7.07;;;5.00;;
3683;SDS011;1858;48.716;9.648;2024-03-23T02:46:06;8.95;;;5.20;;
3683;SDS011;1858;48.716;9.648;2024-03-23T02:48:34;9.30;;;4.93;;
3683;SDS011;1858;48.716;9.648;2024-03-23T02:51:03;5.20;;;4.70;;
3683;SDS011;1858;48.716;9.648;2024-03-23T02:53:31;8.07;;;5.30;;
3683;SDS011;1858;48.716;9.648;2024-03-23T02:55:59;5.60;;;4.07;;
3683;SDS011;1858;48.716;9.648;2024-03-23T02:58:28;6.20;;;3.90;;
3683;SDS011;1858;48.716;9.648;2024-03-23T03:00:58;6.83;;;4.87;;
3683;SDS011;1858;48.716;9.648;2024-03-23T03:03:26;7.43;;;4.77;;
3683;SDS011;1858;48.716;9.648;2024-03-23T03:05:55;7.70;;;4.87;;
3683;SDS011;1858;48.716;9.648;2024-03-23T03:08:23;7.27;;;4.90;;
3683;SDS011;1858;48.716;9.648;2024-03-23T03:10:52;10.70;;;5.30;;
3683;SDS011;1858;48.716;9.648;2024-03-23T03:16:09;6.10;;;5.17;;
3683;SDS011;1858;48.716;9.648;2024-03-23T03:18:38;7.80;;;4.85;;
3683;SDS011;1858;48.716;9.648;2024-03-23T03:21:10;4.67;;;4.20;;
3683;SDS011;1858;48.716;9.648;2024-03-23T03:23:39;9.30;;;4.47;;
3683;SDS011;1858;48.716;9.648;2024-03-23T03:26:07;13.33;;;4.70;;
3683;SDS011;1858;48.716;9.648;2024-03-23T03:28:36;13.35;;;4.80;;
3683;SDS011;1858;48.716;9.648;2024-03-23T03:31:04;5.40;;;4.03;;
3683;SDS011;1858;48.716;9.648;2024-03-23T03:33:33;5.67;;;4.30;;
3683;SDS011;1858;48.716;9.648;2024-03-23T03:38:49;14.03;;;5.20;;
3683;SDS011;1858;48.716;9.648;2024-03-23T03:41:18;7.53;;;4.30;;
3683;SDS011;1858;48.716;9.648;2024-03-23T03:43:46;4.37;;;3.73;;
3683;SDS011;1858;48.716;9.648;2024-03-23T03:46:15;7.80;;;4.65;;
3683;SDS011;1858;48.716;9.648;2024-03-23T03:48:43;7.77;;;4.70;;
3683;SDS011;1858;48.716;9.648;2024-03-23T03:51:13;5.13;;;4.10;;
3683;SDS011;1858;48.716;9.648;2024-03-23T03:53:41;6.00;;;4.87;;
3683;SDS011;1858;48.716;9.648;2024-03-23T03:56:10;6.03;;;4.23;;
3683;SDS011;1858;48.716;9.648;2024-03-23T03:58:38;6.20;;;4.37;;
3683;SDS011;1858;48.716;9.648;2024-03-23T04:01:07;7.43;;;5.80;;
3683;SDS011;1858;48.716;9.648;2024-03-23T04:03:58;6.93;;;3.87;;
3683;SDS011;1858;48.716;9.648;2024-03-23T04:07:07;7.33;;;5.37;;
3683;SDS011;1858;48.716;9.648;2024-03-23T04:09:38;8.85;;;6.30;;
3683;SDS011;1858;48.716;9.648;2024-03-23T04:12:09;10.37;;;4.73;;
3683;SDS011;1858;48.716;9.648;2024-03-23T04:14:38;8.90;;;5.50;;
3683;SDS011;1858;48.716;9.648;2024-03-23T04:19:56;6.30;;;3.90;;
3683;SDS011;1858;48.716;9.648;2024-03-23T04:22:24;10.80;;;5.93;;
3683;SDS011;1858;48.716;9.648;2024-03-23T04:24:53;7.30;;;4.10;;
3683;SDS011;1858;48.716;9.648;2024-03-23T04:27:25;5.70;;;4.33;;
3683;SDS011;1858;48.716;9.648;2024-03-23T04:29:53;9.40;;;5.60;;
3683;SDS011;1858;48.716;9.648;2024-03-23T04:32:21;5.20;;;4.15;;
3683;SDS011;1858;48.716;9.648;2024-03-23T04:34:50;7.70;;;4.77;;
3683;SDS011;1858;48.716;9.648;2024-03-23T04:37:18;6.10;;;4.80;;
3683;SDS011;1858;48.716;9.648;2024-03-23T04:39:47;8.77;;;4.93;;
3683;SDS011;1858;48.716;9.648;2024-03-23T04:42:15;4.73;;;4.00;;
3683;SDS011;1858;48.716;9.648;2024-03-23T04:44:44;6.40;;;5.15;;
3683;SDS011;1858;48.716;9.648;2024-03-23T04:47:12;9.60;;;4.40;;
3683;SDS011;1858;48.716;9.648;2024-03-23T04:49:41;6.47;;;5.00;;
3683;SDS011;1858;48.716;9.648;2024-03-23T04:52:09;6.03;;;3.87;;
3683;SDS011;1858;48.716;9.648;2024-03-23T04:54:37;7.75;;;4.50;;
3683;SDS011;1858;48.716;9.648;2024-03-23T04:57:07;8.03;;;4.73;;
3683;SDS011;1858;48.716;9.648;2024-03-23T04:59:36;8.35;;;4.20;;
3683;SDS011;1858;48.716;9.648;2024-03-23T05:02:04;7.20;;;4.10;;
3683;SDS011;1858;48.716;9.648;2024-03-23T05:04:33;6.33;;;4.40;;
3683;SDS011;1858;48.716;9.648;2024-03-23T05:07:03;4.93;;;4.10;;
3683;SDS011;1858;48.716;9.648;2024-03-23T05:09:32;6.40;;;4.63;;
3683;SDS011;1858;48.716;9.648;2024-03-23T05:12:00;7.90;;;4.40;;
3683;SDS011;1858;48.716;9.648;2024-03-23T05:14:29;4.43;;;4.00;;
3683;SDS011;1858;48.716;9.648;2024-03-23T05:16:57;5.30;;;4.30;;
3683;SDS011;1858;48.716;9.648;2024-03-23T05:19:26;4.43;;;4.03;;
3683;SDS011;1858;48.716;9.648;2024-03-23T05:21:55;7.40;;;5.03;;
3683;SDS011;1858;48.716;9.648;2024-03-23T05:24:23;5.37;;;4.23;;
3683;SDS011;1858;48.716;9.648;2024-03-23T05:26:51;6.73;;;3.83;;
3683;SDS011;1858;48.716;9.648;2024-03-23T05:29:20;4.53;;;3.90;;
3683;SDS011;1858;48.716;9.648;2024-03-23T05:31:51;4.10;;;3.47;;
3683;SDS011;1858;48.716;9.648;2024-03-23T05:34:19;6.30;;;4.15;;
3683;SDS011;1858;48.716;9.648;2024-03-23T05:36:47;8.55;;;5.30;;
3683;SDS011;1858;48.716;9.648;2024-03-23T05:39:16;8.50;;;6.50;;
3683;SDS011;1858;48.716;9.648;2024-03-23T05:41:44;10.30;;;7.30;;
3683;SDS011;1858;48.716;9.648;2024-03-23T05:44:12;10.70;;;6.80;;
3683;SDS011;1858;48.716;9.648;2024-03-23T05:46:41;10.73;;;7.10;;
3683;SDS011;1858;48.716;9.648;2024-03-23T05:49:11;10.00;;;6.60;;
3683;SDS011;1858;48.716;9.648;2024-03-23T05:51:40;13.33;;;8.30;;
3683;SDS011;1858;48.716;9.648;2024-03-23T05:54:09;9.37;;;5.83;;
3683;SDS011;1858;48.716;9.648;2024-03-23T05:56:37;14.03;;;7.63;;
3683;SDS011;1858;48.716;9.648;2024-03-23T05:59:05;10.83;;;7.20;;
3683;SDS011;1858;48.716;9.648;2024-03-23T06:01:34;9.80;;;6.83;;
3683;SDS011;1858;48.716;9.648;2024-03-23T06:04:02;12.20;;;7.73;;
3683;SDS011;1858;48.716;9.648;2024-03-23T06:06:31;33.37;;;8.07;;
3683;SDS011;1858;48.716;9.648;2024-03-23T06:08:59;14.40;;;7.03;;
3683;SDS011;1858;48.716;9.648;2024-03-23T06:11:27;10.70;;;7.15;;
3683;SDS011;1858;48.716;9.648;2024-03-23T06:13:56;11.03;;;6.40;;
3683;SDS011;1858;48.716;9.648;2024-03-23T06:16:24;9.40;;;6.85;;
3683;SDS011;1858;48.716;9.648;2024-03-23T06:18:54;10.50;;;7.33;;
3683;SDS011;1858;48.716;9.648;2024-03-23T06:21:22;8.90;;;5.50;;
3683;SDS011;1858;48.716;9.648;2024-03-23T06:23:52;10.97;;;5.70;;
3683;SDS011;1858;48.716;9.648;2024-03-23T06:26:22;9.10;;;4.97;;
3683;SDS011;1858;48.716;9.648;2024-03-23T06:28:50;7.60;;;4.73;;
3683;SDS011;1858;48.716;9.648;2024-03-23T06:31:19;8.30;;;5.30;;
3683;SDS011;1858;48.716;9.648;2024-03-23T06:33:47;7.23;;;5.47;;
3683;SDS011;1858;48.716;9.648;2024-03-23T06:36:15;5.80;;;3.87;;
3683;SDS011;1858;48.716;9.648;2024-03-23T06:38:45;9.67;;;4.50;;
3683;SDS011;1858;48.716;9.648;2024-03-23T06:41:14;6.93;;;3.20;;
3683;SDS011;1858;48.716;9.648;2024-03-23T06:43:43;6.37;;;3.50;;
3683;SDS011;1858;48.716;9.648;2024-03-23T06:46:11;7.40;;;4.30;;
3683;SDS011;1858;48.716;9.648;2024-03-23T06:48:40;3.87;;;2.73;;
3683;SDS011;1858;48.716;9.648;2024-03-23T06:51:08;4.13;;;3.30;;
3683;SDS011;1858;48.716;9.648;2024-03-23T06:53:36;3.37;;;2.07;;
3683;SDS011;1858;48.716;9.648;2024-03-23T06:56:05;3.00;;;2.20;;
3683;SDS011;1858;48.716;9.648;2024-03-23T06:58:33;3.57;;;2.03;;
3683;SDS011;1858;48.716;9.648;2024-03-23T07:01:02;3.43;;;1.80;;
3683;SDS011;1858;48.716;9.648;2024-03-23T07:03:30;3.20;;;1.90;;
3683;SDS011;1858;48.716;9.648;2024-03-23T07:05:58;5.73;;;3.57;;
3683;SDS011;1858;48.716;9.648;2024-03-23T07:08:27;4.23;;;2.17;;
3683;SDS011;1858;48.716;9.648;2024-03-23T07:10:55;4.35;;;2.20;;
3683;SDS011;1858;48.716;9.648;2024-03-23T07:13:24;5.93;;;2.47;;
3683;SDS011;1858;48.716;9.648;2024-03-23T07:15:52;4.75;;;2.55;;
3683;SDS011;1858;48.716;9.648;2024-03-23T07:18:23;1.63;;;1.53;;
3683;SDS011;1858;48.716;9.648;2024-03-23T07:23:41;2.47;;;1.20;;
3683;SDS011;1858;48.716;9.648;2024-03-23T07:26:11;5.07;;;2.20;;
3683;SDS011;1858;48.716;9.648;2024-03-23T07:28:40;2.00;;;1.30;;
3683;SDS011;1858;48.716;9.648;2024-03-23T07:31:10;2.13;;;1.20;;
3683;SDS011;1858;48.716;9.648;2024-03-23T07:33:47;1.70;;;1.00;;
3683;SDS011;1858;48.716;9.648;2024-03-23T07:36:16;2.00;;;1.50;;
3683;SDS011;1858;48.716;9.648;2024-03-23T07:38:44;1.60;;;1.20;;
3683;SDS011;1858;48.716;9.648;2024-03-23T09:38:18;1.63;;;0.83;;
3683;SDS011;1858;48.716;9.648;2024-03-23T09:40:46;1.87;;;1.20;;
3683;SDS011;1858;48.716;9.648;2024-03-23T09:43:17;2.47;;;1.30;;
3683;SDS011;1858;48.716;9.648;2024-03-23T09:45:46;6.00;;;1.57;;
3683;SDS011;1858;48.716;9.648;2024-03-23T09:48:16;4.77;;;1.13;;
3683;SDS011;1858;48.716;9.648;2024-03-23T10:06:12;2.20;;;1.20;;
3683;SDS011;1858;48.716;9.648;2024-03-23T10:08:41;5.95;;;1.50;;
3683;SDS011;1858;48.716;9.648;2024-03-23T10:11:18;2.37;;;0.90;;
3683;SDS011;1858;48.716;9.648;2024-03-23T10:13:43;2.00;;;1.00;;
3683;SDS011;1858;48.716;9.648;2024-03-23T10:16:22;3.03;;;1.77;;
3683;SDS011;1858;48.716;9.648;2024-03-23T10:21:51;2.63;;;1.40;;
3683;SDS011;1858;48.716;9.648;2024-03-23T10:24:12;3.03;;;1.40;;
3683;SDS011;1858;48.716;9.648;2024-03-23T10:26:41;3.10;;;1.40;;
3683;SDS011;1858;48.716;9.648;2024-03-23T10:32:08;4.97;;;1.80;;
3683;SDS011;1858;48.716;9.648;2024-03-23T10:34:37;2.70;;;1.00;;
3683;SDS011;1858;48.716;9.648;2024-03-23T10:37:06;4.57;;;1.60;;
3683;SDS011;1858;48.716;9.648;2024-03-23T10:39:39;3.10;;;1.30;;
3683;SDS011;1858;48.716;9.648;2024-03-23T10:42:09;2.17;;;1.33;;
3683;SDS011;1858;48.716;9.648;2024-03-23T10:44:37;5.87;;;2.50;;
3683;SDS011;1858;48.716;9.648;2024-03-23T10:47:06;3.37;;;1.30;;
3683;SDS011;1858;48.716;9.648;2024-03-23T10:49:35;3.10;;;0.90;;
3683;SDS011;1858;48.716;9.648;2024-03-23T10:52:04;4.50;;;1.57;;
3683;SDS011;1858;48.716;9.648;2024-03-23T10:54:33;4.30;;;1.20;;
3683;SDS011;1858;48.716;9.648;2024-03-23T10:59:51;1.80;;;1.00;;
3683;SDS011;1858;48.716;9.648;2024-03-23T11:02:21;5.30;;;1.50;;
3683;SDS011;1858;48.716;9.648;2024-03-23T11:04:50;2.50;;;1.40;;
3683;SDS011;1858;48.716;9.648;2024-03-23T11:10:27;3.80;;;1.50;;
3683;SDS011;1858;48.716;9.648;2024-03-23T11:12:57;4.83;;;2.10;;
3683;SDS011;1858;48.716;9.648;2024-03-23T11:15:25;5.10;;;1.60;;
3683;SDS011;1858;48.716;9.648;2024-03-23T11:18:03;3.90;;;1.63;;
3683;SDS011;1858;48.716;9.648;2024-03-23T11:23:35;4.50;;;1.80;;
3683;SDS011;1858;48.716;9.648;2024-03-23T11:26:06;6.13;;;2.63;;
3683;SDS011;1858;48.716;9.648;2024-03-23T11:28:34;3.50;;;2.13;;
3683;SDS011;1858;48.716;9.648;2024-03-23T11:31:08;4.93;;;2.90;;
3683;SDS011;1858;48.716;9.648;2024-03-23T11:33:38;4.33;;;1.83;;
3683;SDS011;1858;48.716;9.648;2024-03-23T11:36:07;7.67;;;2.43;;
3683;SDS011;1858;48.716;9.648;2024-03-23T11:38:38;4.80;;;1.63;;
3683;SDS011;1858;48.716;9.648;2024-03-23T11:41:06;4.17;;;1.43;;
3683;SDS011;1858;48.716;9.648;2024-03-23T11:43:34;4.00;;;1.80;;
3683;SDS011;1858;48.716;9.648;2024-03-23T11:46:03;5.03;;;2.50;;
3683;SDS011;1858;48.716;9.648;2024-03-23T11:48:31;2.37;;;1.43;;
3683;SDS011;1858;48.716;9.648;2024-03-23T11:53:47;2.17;;;0.90;;
3683;SDS011;1858;48.716;9.648;2024-03-23T11:56:16;1.73;;;1.17;;
3683;SDS011;1858;48.716;9.648;2024-03-23T11:58:44;2.03;;;1.23;;
3683;SDS011;1858;48.716;9.648;2024-03-23T12:01:14;2.90;;;1.30;;
3683;SDS011;1858;48.716;9.648;2024-03-23T12:03:43;4.47;;;2.23;;
3683;SDS011;1858;48.716;9.648;2024-03-23T12:09:05;2.50;;;1.37;;
3683;SDS011;1858;48.716;9.648;2024-03-23T12:11:35;2.47;;;1.60;;
3683;SDS011;1858;48.716;9.648;2024-03-23T12:14:03;4.97;;;2.20;;
3683;SDS011;1858;48.716;9.648;2024-03-23T12:16:32;3.33;;;1.67;;
3683;SDS011;1858;48.716;9.648;2024-03-23T12:19:04;2.90;;;1.77;;
3683;SDS011;1858;48.716;9.648;2024-03-23T12:21:32;3.23;;;1.67;;
3683;SDS011;1858;48.716;9.648;2024-03-23T12:24:01;5.77;;;1.50;;
3683;SDS011;1858;48.716;9.648;2024-03-23T12:26:29;1.93;;;0.90;;
3683;SDS011;1858;48.716;9.648;2024-03-23T12:28:58;1.97;;;1.30;;
3683;SDS011;1858;48.716;9.648;2024-03-23T12:31:26;2.83;;;1.30;;
3683;SDS011;1858;48.716;9.648;2024-03-23T12:33:54;4.07;;;2.20;;
3683;SDS011;1858;48.716;9.648;2024-03-23T12:36:23;2.70;;;1.03;;
3683;SDS011;1858;48.716;9.648;2024-03-23T12:38:51;2.47;;;1.13;;
3683;SDS011;1858;48.716;9.648;2024-03-23T12:41:19;2.03;;;1.40;;
3683;SDS011;1858;48.716;9.648;2024-03-23T12:43:48;1.57;;;0.90;;
3683;SDS011;1858;48.716;9.648;2024-03-23T12:46:16;1.70;;;1.17;;
3683;SDS011;1858;48.716;9.648;2024-03-23T12:48:45;3.23;;;0.90;;
3683;SDS011;1858;48.716;9.648;2024-03-23T12:51:13;2.57;;;1.30;;
3683;SDS011;1858;48.716;9.648;2024-03-23T12:53:41;2.77;;;1.10;;
3683;SDS011;1858;48.716;9.648;2024-03-23T12:58:58;2.40;;;1.10;;
3683;SDS011;1858;48.716;9.648;2024-03-23T13:01:26;3.47;;;0.83;;
3683;SDS011;1858;48.716;9.648;2024-03-23T13:03:55;1.30;;;0.60;;
3683;SDS011;1858;48.716;9.648;2024-03-23T13:06:23;1.70;;;0.73;;
3683;SDS011;1858;48.716;9.648;2024-03-23T13:08:51;2.00;;;1.17;;
3683;SDS011;1858;48.716;9.648;2024-03-23T13:11:21;1.57;;;0.80;;
3683;SDS011;1858;48.716;9.648;2024-03-23T13:13:50;1.53;;;0.80;;
3683;SDS011;1858;48.716;9.648;2024-03-23T13:16:19;2.33;;;2.03;;
3683;SDS011;1858;48.716;9.648;2024-03-23T13:18:47;3.10;;;1.07;;
3683;SDS011;1858;48.716;9.648;2024-03-23T13:21:16;1.30;;;0.70;;
3683;SDS011;1858;48.716;9.648;2024-03-23T13:23:47;3.60;;;0.67;;
3683;SDS011;1858;48.716;9.648;2024-03-23T13:26:17;4.37;;;0.97;;
3683;SDS011;1858;48.716;9.648;2024-03-23T13:28:45;2.47;;;0.93;;
3683;SDS011;1858;48.716;9.648;2024-03-23T13:31:14;2.33;;;0.90;;
3683;SDS011;1858;48.716;9.648;2024-03-23T13:33:42;4.50;;;1.80;;
3683;SDS011;1858;48.716;9.648;2024-03-23T13:36:11;3.93;;;1.20;;
3683;SDS011;1858;48.716;9.648;2024-03-23T13:38:39;3.40;;;1.87;;
3683;SDS011;1858;48.716;9.648;2024-03-23T13:41:08;5.70;;;1.27;;
3683;SDS011;1858;48.716;9.648;2024-03-23T13:43:38;3.30;;;1.60;;
3683;SDS011;1858;48.716;9.648;2024-03-23T13:46:07;4.57;;;1.37;;
3683;SDS011;1858;48.716;9.648;2024-03-23T13:48:35;1.87;;;0.83;;
3683;SDS011;1858;48.716;9.648;2024-03-23T13:51:04;8.20;;;2.57;;
3683;SDS011;1858;48.716;9.648;2024-03-23T13:53:32;2.33;;;0.90;;
3683;SDS011;1858;48.716;9.648;2024-03-23T13:56:01;3.53;;;1.40;;
3683;SDS011;1858;48.716;9.648;2024-03-23T13:58:29;4.03;;;1.57;;
3683;SDS011;1858;48.716;9.648;2024-03-23T14:00:58;4.53;;;1.10;;
3683;SDS011;1858;48.716;9.648;2024-03-23T14:03:26;4.00;;;1.07;;
3683;SDS011;1858;48.716;9.648;2024-03-23T14:08:44;2.90;;;1.30;;
3683;SDS011;1858;48.716;9.648;2024-03-23T14:11:12;2.13;;;0.83;;
3683;SDS011;1858;48.716;9.648;2024-03-23T14:13:40;1.63;;;0.97;;
3683;SDS011;1858;48.716;9.648;2024-03-23T14:16:09;2.83;;;1.03;;
3683;SDS011;1858;48.716;9.648;2024-03-23T14:18:37;1.70;;;0.67;;
3683;SDS011;1858;48.716;9.648;2024-03-23T14:21:06;1.93;;;0.70;;
3683;SDS011;1858;48.716;9.648;2024-03-23T14:23:34;1.33;;;0.60;;
3683;SDS011;1858;48.716;9.648;2024-03-23T14:26:03;2.70;;;0.60;;
3683;SDS011;1858;48.716;9.648;2024-03-23T14:28:31;3.43;;;1.10;;
3683;SDS011;1858;48.716;9.648;2024-03-23T14:31:00;4.80;;;0.80;;
3683;SDS011;1858;48.716;9.648;2024-03-23T14:33:30;1.37;;;0.83;;
3683;SDS011;1858;48.716;9.648;2024-03-23T14:36:00;3.00;;;1.53;;
3683;SDS011;1858;48.716;9.648;2024-03-23T14:38:28;2.13;;;0.80;;
3683;SDS011;1858;48.716;9.648;2024-03-23T14:43:44;2.17;;;0.80;;
3683;SDS011;1858;48.716;9.648;2024-03-23T14:46:15;2.93;;;0.90;;
3683;SDS011;1858;48.716;9.648;2024-03-23T14:48:44;1.93;;;0.77;;
3683;SDS011;1858;48.716;9.648;2024-03-23T14:51:12;1.73;;;0.57;;
3683;SDS011;1858;48.716;9.648;2024-03-23T14:53:41;4.93;;;0.83;;
3683;SDS011;1858;48.716;9.648;2024-03-23T14:56:13;1.30;;;0.60;;
3683;SDS011;1858;48.716;9.648;2024-03-23T14:58:42;1.30;;;0.80;;
3683;SDS011;1858;48.716;9.648;2024-03-23T15:01:13;1.57;;;0.80;;
3683;SDS011;1858;48.716;9.648;2024-03-23T15:03:42;3.57;;;0.60;;
3683;SDS011;1858;48.716;9.648;2024-03-23T15:06:11;1.47;;;0.57;;
3683;SDS011;1858;48.716;9.648;2024-03-23T15:08:39;3.00;;;1.10;;
3683;SDS011;1858;48.716;9.648;2024-03-23T15:11:08;3.27;;;0.60;;
3683;SDS011;1858;48.716;9.648;2024-03-23T15:13:36;1.00;;;0.50;;
3683;SDS011;1858;48.716;9.648;2024-03-23T15:16:06;1.30;;;0.50;;
3683;SDS011;1858;48.716;9.648;2024-03-23T15:18:34;2.13;;;0.60;;
3683;SDS011;1858;48.716;9.648;2024-03-23T15:21:03;1.10;;;0.50;;
3683;SDS011;1858;48.716;9.648;2024-03-23T15:23:33;1.67;;;0.90;;
3683;SDS011;1858;48.716;9.648;2024-03-23T15:26:02;1.27;;;0.60;;
3683;SDS011;1858;48.716;9.648;2024-03-23T15:28:32;1.40;;;0.50;;
3683;SDS011;1858;48.716;9.648;2024-03-23T15:31:08;1.40;;;0.70;;
3683;SDS011;1858;48.716;9.648;2024-03-23T15:34:18;6.30;;;0.83;;
3683;SDS011;1858;48.716;9.648;2024-03-23T15:36:50;1.90;;;0.50;;
3683;SDS011;1858;48.716;9.648;2024-03-23T15:39:18;1.10;;;0.80;;
3683;SDS011;1858;48.716;9.648;2024-03-23T15:44:30;1.30;;;0.67;;
3683;SDS011;1858;48.716;9.648;2024-03-23T15:46:58;0.90;;;0.40;;
3683;SDS011;1858;48.716;9.648;2024-03-23T15:49:27;1.00;;;0.50;;
3683;SDS011;1858;48.716;9.648;2024-03-23T15:51:56;4.10;;;0.90;;
3683;SDS011;1858;48.716;9.648;2024-03-23T15:54:24;1.53;;;0.50;;
3683;SDS011;1858;48.716;9.648;2024-03-23T15:56:53;2.50;;;1.07;;
3683;SDS011;1858;48.716;9.648;2024-03-23T15:59:21;1.10;;;0.60;;
3683;SDS011;1858;48.716;9.648;2024-03-23T16:01:49;1.13;;;0.50;;
3683;SDS011;1858;48.716;9.648;2024-03-23T16:04:18;1.20;;;0.57;;
3683;SDS011;1858;48.716;9.648;2024-03-23T16:06:46;0.90;;;0.50;;
3683;SDS011;1858;48.716;9.648;2024-03-23T16:09:14;0.93;;;0.40;;
3683;SDS011;1858;48.716;9.648;2024-03-23T16:11:43;1.20;;;0.50;;
3683;SDS011;1858;48.716;9.648;2024-03-23T16:14:11;2.10;;;0.80;;
3683;SDS011;1858;48.716;9.648;2024-03-23T16:16:40;2.33;;;0.50;;
3683;SDS011;1858;48.716;9.648;2024-03-23T16:19:08;4.87;;;0.80;;
3683;SDS011;1858;48.716;9.648;2024-03-23T16:21:38;1.00;;;0.50;;
3683;SDS011;1858;48.716;9.648;2024-03-23T16:24:07;3.83;;;0.60;;
3683;SDS011;1858;48.716;9.648;2024-03-23T16:26:35;5.20;;;0.50;;
3683;SDS011;1858;48.716;9.648;2024-03-23T16:29:03;2.37;;;0.90;;
3683;SDS011;1858;48.716;9.648;2024-03-23T16:31:32;1.40;;;0.80;;
3683;SDS011;1858;48.716;9.648;2024-03-23T16:34:00;2.13;;;0.80;;
3683;SDS011;1858;48.716;9.648;2024-03-23T16:36:29;2.30;;;0.90;;
3683;SDS011;1858;48.716;9.648;2024-03-23T16:38:57;1.00;;;0.60;;
3683;SDS011;1858;48.716;9.648;2024-03-23T16:41:25;1.83;;;0.70;;
3683;SDS011;1858;48.716;9.648;2024-03-23T16:43:54;2.37;;;0.70;;
3683;SDS011;1858;48.716;9.648;2024-03-23T16:46:23;10.50;;;1.33;;
3683;SDS011;1858;48.716;9.648;2024-03-23T16:48:51;1.10;;;0.80;;
3683;SDS011;1858;48.716;9.648;2024-03-23T16:51:20;2.20;;;0.70;;
3683;SDS011;1858;48.716;9.648;2024-03-23T16:53:49;2.07;;;0.90;;
3683;SDS011;1858;48.716;9.648;2024-03-23T16:56:17;1.43;;;0.70;;
3683;SDS011;1858;48.716;9.648;2024-03-23T16:58:45;1.57;;;0.90;;
3683;SDS011;1858;48.716;9.648;2024-03-23T17:01:15;1.80;;;1.00;;
3683;SDS011;1858;48.716;9.648;2024-03-23T17:03:51;1.97;;;0.70;;
3683;SDS011;1858;48.716;9.648;2024-03-23T17:06:37;2.57;;;1.00;;
3683;SDS011;1858;48.716;9.648;2024-03-23T17:09:06;1.20;;;0.60;;
3683;SDS011;1858;48.716;9.648;2024-03-23T17:11:34;1.50;;;0.90;;
3683;SDS011;1858;48.716;9.648;2024-03-23T17:14:02;2.70;;;0.80;;
3683;SDS011;1858;48.716;9.648;2024-03-23T17:16:31;3.50;;;1.67;;
3683;SDS011;1858;48.716;9.648;2024-03-23T17:18:59;2.33;;;1.30;;
3683;SDS011;1858;48.716;9.648;2024-03-23T17:21:28;2.20;;;0.93;;
3683;SDS011;1858;48.716;9.648;2024-03-23T17:23:56;1.67;;;0.93;;
3683;SDS011;1858;48.716;9.648;2024-03-23T17:26:25;1.73;;;0.60;;
3683;SDS011;1858;48.716;9.648;2024-03-23T17:28:53;2.07;;;1.60;;
3683;SDS011;1858;48.716;9.648;2024-03-23T17:31:22;1.30;;;0.73;;
3683;SDS011;1858;48.716;9.648;2024-03-23T17:33:50;1.80;;;0.80;;
3683;SDS011;1858;48.716;9.648;2024-03-23T17:36:19;2.13;;;0.70;;
3683;SDS011;1858;48.716;9.648;2024-03-23T17:38:49;1.37;;;0.80;;
3683;SDS011;1858;48.716;9.648;2024-03-23T17:41:17;1.47;;;0.87;;
3683;SDS011;1858;48.716;9.648;2024-03-23T17:43:47;1.50;;;0.77;;
3683;SDS011;1858;48.716;9.648;2024-03-23T17:46:15;1.90;;;1.03;;
3683;SDS011;1858;48.716;9.648;2024-03-23T17:48:44;2.17;;;0.77;;
3683;SDS011;1858;48.716;9.648;2024-03-23T17:51:12;1.20;;;0.50;;
3683;SDS011;1858;48.716;9.648;2024-03-23T17:53:41;1.23;;;0.60;;
3683;SDS011;1858;48.716;9.648;2024-03-23T17:56:10;1.00;;;0.50;;
3683;SDS011;1858;48.716;9.648;2024-03-23T17:58:39;0.80;;;0.40;;
3683;SDS011;1858;48.716;9.648;2024-03-23T18:01:08;1.40;;;0.90;;
3683;SDS011;1858;48.716;9.648;2024-03-23T18:03:38;1.20;;;0.57;;
3683;SDS011;1858;48.716;9.648;2024-03-23T18:06:06;1.70;;;0.67;;
3683;SDS011;1858;48.716;9.648;2024-03-23T18:08:34;3.03;;;1.30;;
3683;SDS011;1858;48.716;9.648;2024-03-23T18:11:09;1.43;;;0.70;;
3683;SDS011;1858;48.716;9.648;2024-03-23T18:13:37;1.47;;;0.90;;
3683;SDS011;1858;48.716;9.648;2024-03-23T18:16:06;4.20;;;1.50;;
3683;SDS011;1858;48.716;9.648;2024-03-23T18:18:34;1.60;;;0.80;;
3683;SDS011;1858;48.716;9.648;2024-03-23T18:21:03;2.47;;;1.03;;
3683;SDS011;1858;48.716;9.648;2024-03-23T18:23:32;1.10;;;0.63;;
3683;SDS011;1858;48.716;9.648;2024-03-23T18:26:00;1.07;;;0.70;;
3683;SDS011;1858;48.716;9.648;2024-03-23T18:28:28;1.93;;;1.17;;
3683;SDS011;1858;48.716;9.648;2024-03-23T18:31:02;2.90;;;1.27;;
3683;SDS011;1858;48.716;9.648;2024-03-23T18:33:34;1.80;;;0.67;;
3683;SDS011;1858;48.716;9.648;2024-03-23T18:35:59;2.90;;;1.40;;
3683;SDS011;1858;48.716;9.648;2024-03-23T18:38:27;2.13;;;1.17;;
3683;SDS011;1858;48.716;9.648;2024-03-23T18:40:56;2.00;;;1.10;;
3683;SDS011;1858;48.716;9.648;2024-03-23T18:43:24;1.63;;;0.97;;
3683;SDS011;1858;48.716;9.648;2024-03-23T18:45:54;2.83;;;2.30;;
3683;SDS011;1858;48.716;9.648;2024-03-23T18:48:22;3.10;;;2.40;;
3683;SDS011;1858;48.716;9.648;2024-03-23T18:50:51;2.60;;;2.23;;
3683;SDS011;1858;48.716;9.648;2024-03-23T18:53:19;1.90;;;1.50;;
3683;SDS011;1858;48.716;9.648;2024-03-23T18:55:53;2.00;;;1.63;;
3683;SDS011;1858;48.716;9.648;2024-03-23T18:58:41;1.40;;;1.30;;
3683;SDS011;1858;48.716;9.648;2024-03-23T19:01:10;2.30;;;1.47;;
3683;SDS011;1858;48.716;9.648;2024-03-23T19:03:38;4.27;;;1.50;;
3683;SDS011;1858;48.716;9.648;2024-03-23T19:06:07;1.50;;;1.00;;
3683;SDS011;1858;48.716;9.648;2024-03-23T19:08:35;2.60;;;1.27;;
3683;SDS011;1858;48.716;9.648;2024-03-23T19:11:03;1.60;;;1.50;;
3683;SDS011;1858;48.716;9.648;2024-03-23T19:13:32;1.87;;;1.10;;
3683;SDS011;1858;48.716;9.648;2024-03-23T19:16:01;5.00;;;1.70;;
3683;SDS011;1858;48.716;9.648;2024-03-23T19:18:32;1.60;;;1.20;;
3683;SDS011;1858;48.716;9.648;2024-03-23T19:21:05;12.53;;;2.13;;
3683;SDS011;1858;48.716;9.648;2024-03-23T19:23:34;2.87;;;1.70;;